D/T METAR WX W/DIR W/SPE G/SPE TEMP DEWP
27/05/19 07:20 EGPM 270620Z 01011KT 9999 VCSH FEW020 07/03 Q1004 VCSH N (10°) 12.7mph 7°C 3°C
27/05/19 06:50 EGPM 270550Z 35012KT 9999 VCSH FEW020 06/03 Q1004 NOSIG VCSH N (350°) 13.8mph 6°C 3°C
27/05/19 05:50 EGPM 270450Z 34011KT 9999 FEW017 06/03 Q1004 NOSIG NNW (340°) 12.7mph 6°C 3°C
27/05/19 05:20 EGPM 270420Z AUTO 35009KT 9999 BKN025/// OVC041/// 06/03 Q1004 N (350°) 10.4mph 6°C 3°C
27/05/19 04:50 EGPM 270350Z AUTO 36009KT 9999 OVC022/// 06/03 Q1004 N (360°) 10.4mph 6°C 3°C
27/05/19 04:20 EGPM 270320Z AUTO 33010KT 9999 BKN019/// OVC034/// 06/04 Q1004 NNW (330°) 11.5mph 6°C 4°C
27/05/19 03:50 EGPM 270250Z AUTO 34010KT 9999 FEW003/// SCT006/// BKN014/// 06/04 Q1004 NNW (340°) 11.5mph 6°C 4°C
27/05/19 02:50 EGPM 270150Z AUTO 02010KT 9999 -RA FEW010/// BKN017/// BKN030/// 06/04 Q1004 -RA NNE (20°) 11.5mph 6°C 4°C
27/05/19 02:20 EGPM 270120Z AUTO 03010KT 9999 BKN012/// BKN024/// 06/04 Q1004 NNE (30°) 11.5mph 6°C 4°C
27/05/19 01:50 EGPM 270050Z AUTO 02008KT 9999 SCT015/// BKN027/// 06/04 Q1004 NNE (20°) 9.2mph 6°C 4°C
27/05/19 01:20 EGPM 270020Z AUTO 35010KT 9999 BKN039/// 06/04 Q1004 N (350°) 11.5mph 6°C 4°C
27/05/19 00:50 EGPM 262350Z AUTO 36010KT 9999 FEW024/// BKN045/// 06/04 Q1004 N (360°) 11.5mph 6°C 4°C
27/05/19 00:20 EGPM 262320Z AUTO 01008KT 9999 BKN022/// BKN038/// 06/04 Q1004 N (10°) 9.2mph 6°C 4°C
26/05/19 23:50 EGPM 262250Z AUTO 10004KT 9999 FEW023/// 03/02 Q1005 E (100°) 4.6mph 3°C 2°C
26/05/19 23:20 EGPM 262220Z AUTO VRB02KT 9999 NCD 03/02 Q1005 N (0°) 2.3mph 3°C 2°C
26/05/19 22:50 EGPM 262150Z AUTO 10004KT 9999 SCT024/// 03/01 Q1005 E (100°) 4.6mph 3°C 1°C
26/05/19 22:20 EGPM 262120Z AUTO 08004KT 020V110 9999 FEW044/// 04/02 Q1005 E (80°) 4.6mph 4°C 2°C
26/05/19 21:50 EGPM 262050Z AUTO 05008KT 9999 SCT041/// 07/04 Q1005 NE (50°) 9.2mph 7°C 4°C
26/05/19 21:20 EGPM 262020Z AUTO 05010KT 9999 SCT040/// 07/03 Q1004 NE (50°) 11.5mph 7°C 3°C
26/05/19 20:50 EGPM 261950Z AUTO 05010KT 9999 BKN029/// OVC048/// 08/03 Q1004 NE (50°) 11.5mph 8°C 3°C
26/05/19 20:20 EGPM 261920Z AUTO 03011KT 9999 FEW021/// BKN032/// 08/04 Q1005 NNE (30°) 12.7mph 8°C 4°C
26/05/19 19:50 EGPM 261850Z AUTO 03010KT 9999 FEW027/// SCT039/// 08/04 Q1004 NNE (30°) 11.5mph 8°C 4°C
26/05/19 19:20 EGPM 261820Z AUTO 03013KT 9999 BKN020/// OVC034/// 08/04 Q1005 NNE (30°) 15.0mph 8°C 4°C
26/05/19 18:50 EGPM 261750Z AUTO 08009KT 9999 BKN027/// 08/04 Q1005 E (80°) 10.4mph 8°C 4°C
26/05/19 18:20 EGPM 261720Z AUTO 07011KT 9999 BKN028/// 09/04 Q1005 ENE (70°) 12.7mph 9°C 4°C
26/05/19 17:50 EGPM 261650Z AUTO 07009KT 040V100 9999 FEW035/// 09/03 Q1005 ENE (70°) 10.4mph 9°C 3°C
26/05/19 17:20 EGPM 261620Z AUTO 06011KT 9999 FEW023/// 09/04 Q1005 ENE (60°) 12.7mph 9°C 4°C
26/05/19 16:50 EGPM 261550Z AUTO 09011KT 9999 FEW026/// BKN045/// 09/04 Q1005 E (90°) 12.7mph 9°C 4°C
26/05/19 16:20 EGPM 261520Z AUTO 07011KT 9999 NCD 09/04 Q1005 ENE (70°) 12.7mph 9°C 4°C
26/05/19 15:50 EGPM 261450Z AUTO 08011KT 9999 FEW044/// 09/04 Q1005 E (80°) 12.7mph 9°C 4°C
26/05/19 15:20 EGPM 261420Z AUTO 08011KT 9999 SCT046/// 09/04 Q1005 E (80°) 12.7mph 9°C 4°C
26/05/19 14:50 EGPM 261350Z AUTO 07010KT 9999 SCT043/// 09/02 Q1005 ENE (70°) 11.5mph 9°C 2°C
26/05/19 14:20 EGPM 261320Z AUTO 08011KT 9999 BKN037/// 10/03 Q1006 E (80°) 12.7mph 10°C 3°C
26/05/19 13:50 EGPM 261250Z AUTO 07009KT 9999 BKN040/// 09/03 Q1006 ENE (70°) 10.4mph 9°C 3°C
26/05/19 13:20 EGPM 261220Z AUTO 07008KT 030V110 9999 FEW040/// 10/03 Q1006 ENE (70°) 9.2mph 10°C 3°C
26/05/19 12:50 EGPM 261150Z AUTO 09008KT 040V110 9999 NCD 10/03 Q1006 E (90°) 9.2mph 10°C 3°C
26/05/19 12:20 EGPM 261120Z AUTO 07010KT 9999 SCT038/// 10/03 Q1006 ENE (70°) 11.5mph 10°C 3°C
26/05/19 11:50 EGPM 261050Z AUTO 08010KT 9999 OVC033/// 10/03 Q1006 E (80°) 11.5mph 10°C 3°C
26/05/19 11:20 EGPM 261020Z AUTO 08010KT 050V110 9999 FEW035/// 10/04 Q1006 E (80°) 11.5mph 10°C 4°C
26/05/19 10:50 EGPM 260950Z AUTO 09011KT 9999 FEW029/// SCT041/// 09/04 Q1006 E (90°) 12.7mph 9°C 4°C
26/05/19 10:20 EGPM 260920Z AUTO 08011KT 050V110 9999 FEW028/// BKN035/// 10/04 Q1006 E (80°) 12.7mph 10°C 4°C
26/05/19 09:50 EGPM 260850Z AUTO 06011KT 9999 BKN024/// OVC038/// 09/04 Q1007 ENE (60°) 12.7mph 9°C 4°C
26/05/19 09:20 EGPM 260820Z AUTO 08008KT 9999 BKN029/// 09/03 Q1007 E (80°) 9.2mph 9°C 3°C
26/05/19 08:50 EGPM 260750Z AUTO 07008KT 030V100 9999 BKN028/// OVC045/// 09/04 Q1008 ENE (70°) 9.2mph 9°C 4°C
26/05/19 08:20 EGPM 260720Z AUTO 09006KT 050V110 9999 FEW022/// OVC037/// 09/04 Q1008 E (90°) 6.9mph 9°C 4°C
26/05/19 07:50 EGPM 260650Z AUTO 06010KT 030V100 9999 SCT021/// BKN039/// 08/04 Q1008 ENE (60°) 11.5mph 8°C 4°C
26/05/19 07:20 EGPM 260620Z AUTO 05010KT 9999 BKN040/// 08/03 Q1007 NE (50°) 11.5mph 8°C 3°C
26/05/19 06:50 EGPM 260550Z AUTO 05010KT 9999 SCT038/// 07/03 Q1008 NE (50°) 11.5mph 7°C 3°C